Ashiya Air Base, Japan

12:59 AM JST on April 19, 2015 (GMT +0900)
Akama Station(JR KYUSHU RAILWAY) | | Change Station
CLOSE
Current Station
Personal Weather Station
Location: Munakata, FUKUOKA
Elevation: 33 ft
Nearby Weather Stations

Elev 33 ft 33.80 °N, 130.57 °E | Updated 8 seconds ago

Rain
Rain
60.2 °F
Feels Like 60.2 °F
N
5.0
Wind Variable Wind from SE
Gusts 5.0 mph

Today
High -- | Low -- °F
--% Chance of Precip.
Yesterday
High -- | Low -- °F
Precip. -- in
5:42 AM 6:51 PM
Waning Crescent, 0% visible
Pressure 29.95 in
Visibility 6.2 miles
Clouds Few 2500 ft
Scattered Clouds 7000 ft
Mostly Cloudy 10000 ft
Dew Point 58 °F
Humidity 92%
Rainfall 0.00 in
Snow Depth Not available.
UV 0 out of 12
Pollen Not available.
Air Quality Not available.
Flu Activity Not available.
METAR RJFF 181530Z 15015KT 9999 FEW025 SCT070 BKN100 16/13 Q1014 RMK 1CU025 3AC070 6AC100 A2997

More Conditions Fewer Conditions

Pressure 29.95 in
Visibility 6.2 miles
Clouds Few 2500 ft
Scattered Clouds 7000 ft
Mostly Cloudy 10000 ft
Dew Point 58 °F
Humidity 92%
Rainfall 0.00 in
Snow Depth Not available.
UV 0 out of 12
Pollen Not available.
Air Quality Not available.
Flu Activity Not available.
METAR RJFF 181530Z 15015KT 9999 FEW025 SCT070 BKN100 16/13 Q1014 RMK 1CU025 3AC070 6AC100 A2997

More Conditions Fewer Conditions

10-Day Weather Forecast

Almanac

Astronomy

Apr. 19, 2015 Rise Set
Actual Time
Civil Twilight
Nautical Twilight
Astronomical Twilight
Moon
Length of Visible Light
Length of Day
Tomorrow will be .
, % of the Moon is Illuminated

Today's Extremes

Country Highs Country Lows

Community

WunderPhotos

Upload Photos

1,814,439 photos uploaded!

WunderBlogs® & News

Nearby

Air Quality

  Air Quality AQ Index Pollutant
Not available.

Snow Depth

Station Depth Elevation

Earthquake Activity

City Distance Mag. Time & Date
Minimum magnitude displayed is 2.5.

Coastal Water Temperatures

Place Temperature

Stations

Nearby Weather Stations

Station Location Temp. Windchill Dew Point Humidity Wind Precip. Elev Updated Type